createdAt,value
2023-01-09T00:00:36.778Z,7.82
2023-01-09T00:01:36.973Z,7.80
2023-01-09T00:02:36.767Z,7.79
2023-01-09T00:03:36.993Z,7.79
2023-01-09T00:04:36.724Z,7.79
2023-01-09T00:05:56.972Z,7.75
2023-01-09T00:06:36.706Z,7.77
2023-01-09T00:07:36.940Z,7.77
2023-01-09T00:08:36.708Z,7.74
2023-01-09T00:09:36.943Z,7.72
2023-01-09T00:10:36.704Z,7.71
2023-01-09T00:11:36.947Z,7.71
2023-01-09T00:12:36.707Z,7.69
2023-01-09T00:13:36.924Z,7.67
2023-01-09T00:14:36.692Z,7.67
2023-01-09T00:15:56.932Z,7.63
2023-01-09T00:16:36.709Z,7.63
2023-01-09T00:17:36.920Z,7.61
2023-01-09T00:18:36.690Z,7.60
2023-01-09T00:19:36.941Z,7.58
2023-01-09T00:20:36.675Z,7.57
2023-01-09T00:21:36.917Z,7.53
2023-01-09T00:22:36.672Z,7.55
2023-01-09T00:23:36.402Z,7.52
2023-01-09T00:24:36.675Z,7.52
2023-01-09T00:25:56.910Z,7.52
2023-01-09T00:26:36.666Z,7.50
2023-01-09T00:27:36.402Z,7.48
2023-01-09T00:28:36.677Z,7.45
2023-01-09T00:29:36.412Z,7.43
2023-01-09T00:30:36.717Z,7.42
2023-01-09T00:31:36.401Z,7.39
2023-01-09T00:32:36.667Z,7.39
2023-01-09T00:33:36.419Z,7.39
2023-01-09T00:34:36.659Z,7.39
2023-01-09T00:35:56.412Z,7.34
2023-01-09T00:36:36.652Z,7.34
2023-01-09T00:37:36.388Z,7.32
2023-01-09T00:38:36.656Z,7.31
2023-01-09T00:39:36.387Z,7.30
2023-01-09T00:40:36.637Z,7.30
2023-01-09T00:41:36.365Z,7.30
2023-01-09T00:42:36.652Z,7.30
2023-01-09T00:43:36.361Z,7.27
2023-01-09T00:44:36.603Z,7.25
2023-01-09T00:45:56.411Z,7.23
2023-01-09T00:46:36.617Z,7.21
2023-01-09T00:47:36.366Z,7.17
2023-01-09T00:48:36.613Z,7.17
2023-01-09T00:49:36.351Z,7.17
2023-01-09T00:50:36.612Z,7.17
2023-01-09T00:51:37.816Z,7.16
2023-01-09T00:52:36.614Z,7.15
2023-01-09T00:53:36.383Z,7.13
2023-01-09T00:54:36.125Z,7.12
2023-01-09T00:55:56.393Z,7.10
2023-01-09T00:56:36.113Z,7.10
2023-01-09T00:57:36.362Z,7.07
2023-01-09T00:58:36.117Z,7.06
2023-01-09T00:59:36.377Z,7.06
2023-01-09T01:00:36.113Z,7.06
2023-01-09T01:01:36.540Z,7.05
2023-01-09T01:02:36.127Z,7.02
2023-01-09T01:03:36.376Z,6.99
2023-01-09T01:04:36.126Z,6.98
2023-01-09T01:05:56.391Z,6.97
2023-01-09T01:06:36.106Z,6.94
2023-01-09T01:07:36.364Z,6.95
2023-01-09T01:08:36.098Z,6.94
2023-01-09T01:09:36.344Z,6.91
2023-01-09T01:10:36.097Z,6.89
2023-01-09T01:11:36.351Z,6.88
2023-01-09T01:12:36.097Z,6.87
2023-01-09T01:13:36.348Z,6.85
2023-01-09T01:14:36.100Z,6.85
2023-01-09T01:15:56.365Z,6.87
2023-01-09T01:16:36.132Z,6.84
2023-01-09T01:17:36.345Z,6.84
2023-01-09T01:18:36.100Z,6.81
2023-01-09T01:19:36.347Z,6.81
2023-01-09T01:20:36.077Z,6.85
2023-01-09T01:21:36.337Z,6.84
2023-01-09T01:22:36.071Z,6.81
2023-01-09T01:23:35.835Z,6.80
2023-01-09T01:24:36.082Z,6.79
2023-01-09T01:25:56.338Z,6.77
2023-01-09T01:26:36.059Z,6.77
2023-01-09T01:27:35.819Z,6.76
2023-01-09T01:28:36.063Z,6.73
2023-01-09T01:29:35.815Z,6.73
2023-01-09T01:30:36.080Z,6.74
2023-01-09T01:31:35.813Z,6.71
2023-01-09T01:32:36.043Z,6.73
2023-01-09T01:33:35.791Z,6.73
2023-01-09T01:34:36.041Z,6.71
2023-01-09T01:35:55.794Z,6.69
2023-01-09T01:36:36.035Z,6.69
2023-01-09T01:37:35.759Z,6.70
2023-01-09T01:38:36.019Z,6.70
2023-01-09T01:39:35.751Z,6.70
2023-01-09T01:40:36.010Z,6.67
2023-01-09T01:41:35.752Z,6.67
2023-01-09T01:42:36.006Z,6.69
2023-01-09T01:43:35.750Z,6.64
2023-01-09T01:44:36.025Z,6.64
2023-01-09T01:45:55.831Z,6.64
2023-01-09T01:46:36.011Z,6.62
2023-01-09T01:47:35.729Z,6.62
2023-01-09T01:48:35.984Z,6.59
2023-01-09T01:49:35.715Z,6.61
2023-01-09T01:50:35.995Z,6.58
2023-01-09T01:51:35.722Z,6.56
2023-01-09T01:52:35.977Z,6.56
2023-01-09T01:53:35.735Z,6.55
2023-01-09T01:54:35.967Z,6.55
2023-01-09T01:55:55.737Z,6.55
2023-01-09T01:56:35.967Z,6.54
2023-01-09T01:57:35.703Z,6.52
2023-01-09T01:58:35.975Z,6.54
2023-01-09T01:59:35.714Z,6.52
2023-01-09T02:00:35.467Z,6.52
2023-01-09T02:01:37.270Z,6.51
2023-01-09T02:02:35.558Z,6.51
2023-01-09T02:03:35.708Z,6.46
2023-01-09T02:04:35.465Z,6.46
2023-01-09T02:05:55.751Z,6.46
2023-01-09T02:06:35.474Z,6.46
2023-01-09T02:07:35.724Z,6.44
2023-01-09T02:08:35.537Z,6.46
2023-01-09T02:09:35.755Z,6.43
2023-01-09T02:10:35.522Z,6.44
2023-01-09T02:11:36.778Z,6.43
2023-01-09T02:12:35.544Z,6.43
2023-01-09T02:13:35.794Z,6.44
2023-01-09T02:14:35.539Z,6.43
2023-01-09T02:15:55.817Z,6.40
2023-01-09T02:16:35.543Z,6.41
2023-01-09T02:17:35.772Z,6.40
2023-01-09T02:18:35.537Z,6.40
2023-01-09T02:19:35.779Z,6.38
2023-01-09T02:20:35.542Z,6.38
2023-01-09T02:21:36.283Z,6.37
2023-01-09T02:22:36.985Z,6.36
2023-01-09T02:23:35.297Z,6.38
2023-01-09T02:24:35.550Z,6.36
2023-01-09T02:25:55.310Z,6.37
2023-01-09T02:26:35.553Z,6.36
2023-01-09T02:27:35.283Z,6.36
2023-01-09T02:28:35.556Z,6.34
2023-01-09T02:29:36.292Z,6.34
2023-01-09T02:30:35.558Z,6.33
2023-01-09T02:31:35.347Z,6.33
2023-01-09T02:32:35.544Z,6.31
2023-01-09T02:33:36.277Z,6.31
2023-01-09T02:34:35.558Z,6.28
2023-01-09T02:35:55.291Z,6.27
2023-01-09T02:36:35.541Z,6.25
2023-01-09T02:37:35.273Z,6.25
2023-01-09T02:38:35.538Z,6.22
2023-01-09T02:39:35.300Z,6.21
2023-01-09T02:40:35.540Z,6.18
2023-01-09T02:41:35.306Z,6.18
2023-01-09T02:42:35.555Z,6.18
2023-01-09T02:43:35.307Z,6.15
2023-01-09T02:44:35.054Z,6.14
2023-01-09T02:45:55.378Z,6.15
2023-01-09T02:46:37.570Z,6.14
2023-01-09T02:47:35.315Z,6.14
2023-01-09T02:48:35.094Z,6.15
2023-01-09T02:49:35.341Z,6.12
2023-01-09T02:50:35.104Z,6.12
2023-01-09T02:51:35.339Z,6.14
2023-01-09T02:52:35.103Z,6.12
2023-01-09T02:53:35.345Z,6.12
2023-01-09T02:54:35.123Z,6.09
2023-01-09T02:55:55.582Z,6.11
2023-01-09T02:56:35.101Z,6.08
2023-01-09T02:57:35.347Z,6.06
2023-01-09T02:58:35.134Z,6.08
2023-01-09T02:59:35.870Z,6.08
2023-01-09T03:00:35.134Z,6.08
2023-01-09T03:01:35.290Z,6.06
2023-01-09T03:02:35.189Z,6.04
2023-01-09T03:03:34.885Z,6.01
2023-01-09T03:04:35.145Z,6.00
2023-01-09T03:05:54.926Z,6.01
2023-01-09T03:06:35.135Z,5.99
2023-01-09T03:07:34.924Z,6.00
2023-01-09T03:08:35.167Z,6.00
2023-01-09T03:09:34.895Z,6.00
2023-01-09T03:10:35.181Z,5.99
2023-01-09T03:11:34.920Z,5.97
2023-01-09T03:12:35.184Z,5.97
2023-01-09T03:13:34.939Z,5.97
2023-01-09T03:14:35.197Z,5.99
2023-01-09T03:15:54.994Z,5.96
2023-01-09T03:16:34.770Z,5.94
2023-01-09T03:17:35.062Z,5.94
2023-01-09T03:18:34.829Z,5.96
2023-01-09T03:19:35.123Z,5.94
2023-01-09T03:20:34.893Z,5.94
2023-01-09T03:21:36.591Z,5.96
2023-01-09T03:22:34.963Z,5.96
2023-01-09T03:23:34.693Z,5.96
2023-01-09T03:24:35.019Z,5.96
2023-01-09T03:25:54.809Z,5.94
2023-01-09T03:26:35.125Z,5.97
2023-01-09T03:27:36.825Z,5.97
2023-01-09T03:28:34.663Z,5.99
2023-01-09T03:29:34.933Z,5.99
2023-01-09T03:30:34.784Z,5.96
2023-01-09T03:31:35.112Z,5.94
2023-01-09T03:32:34.845Z,5.97
2023-01-09T03:33:34.754Z,5.96
2023-01-09T03:34:34.877Z,5.96
2023-01-09T03:35:54.697Z,5.97
2023-01-09T03:36:34.964Z,5.96
2023-01-09T03:37:35.422Z,5.96
2023-01-09T03:38:34.537Z,5.97
2023-01-09T03:39:34.866Z,5.97
2023-01-09T03:40:34.853Z,5.97
2023-01-09T03:41:34.958Z,5.97
2023-01-09T03:42:34.724Z,5.99
2023-01-09T03:43:34.489Z,5.97
2023-01-09T03:44:34.763Z,5.99
2023-01-09T03:45:55.170Z,6.03
2023-01-09T03:46:34.788Z,6.03
2023-01-09T03:47:34.609Z,6.06
2023-01-09T03:48:35.554Z,6.09
2023-01-09T03:49:34.680Z,6.11
2023-01-09T03:50:34.481Z,6.14
2023-01-09T03:51:34.758Z,6.15
2023-01-09T03:52:35.500Z,6.18
2023-01-09T03:53:34.880Z,6.21
2023-01-09T03:54:34.584Z,6.25
2023-01-09T03:55:54.845Z,6.27
2023-01-09T03:56:34.558Z,6.28
2023-01-09T03:57:34.818Z,6.28
2023-01-09T03:58:34.570Z,6.30
2023-01-09T03:59:34.323Z,6.28
2023-01-09T04:00:34.569Z,6.28
2023-01-09T04:01:34.396Z,6.28
2023-01-09T04:02:34.573Z,6.27
2023-01-09T04:03:34.333Z,6.27
2023-01-09T04:04:34.556Z,6.30
2023-01-09T04:05:54.320Z,6.31
2023-01-09T04:06:36.001Z,6.31
2023-01-09T04:07:35.023Z,6.33
2023-01-09T04:08:34.577Z,6.34
2023-01-09T04:09:34.339Z,6.36
2023-01-09T04:10:34.608Z,6.37
2023-01-09T04:11:34.377Z,6.38
2023-01-09T04:12:36.072Z,6.38
2023-01-09T04:13:34.392Z,6.38
2023-01-09T04:14:34.636Z,6.38
2023-01-09T04:15:55.864Z,6.43
2023-01-09T04:16:34.200Z,6.43
2023-01-09T04:17:34.404Z,6.43
2023-01-09T04:18:34.157Z,6.46
2023-01-09T04:19:35.853Z,6.46
2023-01-09T04:20:34.160Z,6.48
2023-01-09T04:21:34.430Z,6.49
2023-01-09T04:22:34.614Z,6.49
2023-01-09T04:23:34.444Z,6.51
2023-01-09T04:24:35.675Z,6.54
2023-01-09T04:25:54.466Z,6.55
2023-01-09T04:26:34.189Z,6.58
2023-01-09T04:27:35.882Z,6.56
2023-01-09T04:28:34.181Z,6.58
2023-01-09T04:29:34.432Z,6.61
2023-01-09T04:30:34.180Z,6.61
2023-01-09T04:31:34.513Z,6.61
2023-01-09T04:32:35.633Z,6.62
2023-01-09T04:33:35.147Z,6.62
2023-01-09T04:34:34.241Z,6.64
2023-01-09T04:35:54.493Z,6.67
2023-01-09T04:36:34.226Z,6.67
2023-01-09T04:37:34.006Z,6.67
2023-01-09T04:38:34.232Z,6.67
2023-01-09T04:39:33.999Z,6.70
2023-01-09T04:40:34.236Z,6.71
2023-01-09T04:41:33.994Z,6.71
2023-01-09T04:42:34.244Z,6.73
2023-01-09T04:43:34.020Z,6.74
2023-01-09T04:44:34.272Z,6.76
2023-01-09T04:45:54.838Z,6.77
2023-01-09T04:46:34.270Z,6.77
2023-01-09T04:47:34.039Z,6.80
2023-01-09T04:48:34.274Z,6.80
2023-01-09T04:49:34.039Z,6.80
2023-01-09T04:50:34.276Z,6.81
2023-01-09T04:51:34.033Z,6.81
2023-01-09T04:52:33.768Z,6.84
2023-01-09T04:53:34.024Z,6.85
2023-01-09T04:54:33.784Z,6.85
2023-01-09T04:55:54.070Z,6.88
2023-01-09T04:56:33.789Z,6.88
2023-01-09T04:57:34.097Z,6.89
2023-01-09T04:58:34.059Z,6.91
2023-01-09T04:59:35.539Z,6.89
2023-01-09T05:00:33.808Z,6.92
2023-01-09T05:01:34.243Z,6.94
2023-01-09T05:02:35.283Z,6.95
2023-01-09T05:03:35.552Z,6.97
2023-01-09T05:04:33.891Z,6.98
2023-01-09T05:05:54.119Z,7.02
2023-01-09T05:06:33.857Z,6.99
2023-01-09T05:07:34.107Z,7.02
2023-01-09T05:08:34.823Z,7.02
2023-01-09T05:09:35.565Z,7.03
2023-01-09T05:10:33.889Z,7.03
2023-01-09T05:11:35.081Z,7.05
2023-01-09T05:12:34.627Z,7.06
2023-01-09T05:13:33.666Z,7.06
2023-01-09T05:14:35.375Z,7.06
2023-01-09T05:15:54.319Z,7.07
2023-01-09T05:16:33.973Z,7.07
2023-01-09T05:17:33.671Z,7.06
2023-01-09T05:18:35.400Z,7.07
2023-01-09T05:19:35.155Z,7.07
2023-01-09T05:20:35.431Z,7.07
2023-01-09T05:21:34.230Z,7.10
2023-01-09T05:22:33.530Z,7.12
2023-01-09T05:23:34.169Z,7.15
2023-01-09T05:24:34.513Z,7.15
2023-01-09T05:25:53.846Z,7.16
2023-01-09T05:26:33.572Z,7.16
2023-01-09T05:27:34.256Z,7.16
2023-01-09T05:28:33.593Z,7.16
2023-01-09T05:29:33.814Z,7.16
2023-01-09T05:30:33.580Z,7.21
2023-01-09T05:31:33.848Z,7.20
2023-01-09T05:32:33.608Z,7.23
2023-01-09T05:33:33.848Z,7.23
2023-01-09T05:34:33.632Z,7.24
2023-01-09T05:35:53.408Z,7.25
2023-01-09T05:36:33.635Z,7.25
2023-01-09T05:37:34.836Z,7.28
2023-01-09T05:38:34.298Z,7.28
2023-01-09T05:39:33.429Z,7.27
2023-01-09T05:40:40.175Z,7.30
2023-01-09T05:41:34.427Z,7.30
2023-01-09T05:42:34.633Z,7.32
2023-01-09T05:43:33.449Z,7.35
2023-01-09T05:44:34.364Z,7.37
2023-01-09T05:45:53.602Z,7.43
2023-01-09T05:46:34.760Z,7.45
2023-01-09T05:47:35.098Z,7.46
2023-01-09T05:48:34.860Z,7.49
2023-01-09T05:49:35.132Z,7.50
2023-01-09T05:50:34.932Z,7.50
2023-01-09T05:51:34.224Z,7.49
2023-01-09T05:52:35.017Z,7.48
2023-01-09T05:53:34.808Z,7.49
2023-01-09T05:54:35.078Z,7.48
2023-01-09T05:55:53.411Z,7.48
2023-01-09T05:56:33.159Z,7.49
2023-01-09T05:57:33.396Z,7.48
2023-01-09T05:58:33.150Z,7.48
2023-01-09T05:59:33.432Z,7.49
2023-01-09T06:00:33.184Z,7.52
2023-01-09T06:01:33.491Z,7.52
2023-01-09T06:02:33.301Z,7.53
2023-01-09T06:03:33.457Z,7.53
2023-01-09T06:04:33.205Z,7.53
2023-01-09T06:05:53.471Z,7.57
2023-01-09T06:06:33.217Z,7.57
2023-01-09T06:07:33.489Z,7.58
2023-01-09T06:08:33.246Z,7.60
2023-01-09T06:09:33.508Z,7.61
2023-01-09T06:10:32.501Z,7.63
2023-01-09T06:11:32.487Z,7.63
2023-01-09T06:12:32.494Z,7.61
2023-01-09T06:13:32.479Z,7.61
2023-01-09T06:14:32.456Z,7.61
2023-01-09T06:15:54.114Z,7.63
2023-01-09T06:16:32.438Z,7.64
2023-01-09T06:17:32.436Z,7.64
2023-01-09T06:18:32.440Z,7.64
2023-01-09T06:19:32.442Z,7.64
2023-01-09T06:20:32.405Z,7.67
2023-01-09T06:21:32.414Z,7.67
2023-01-09T06:22:32.373Z,7.67
2023-01-09T06:23:32.400Z,7.69
2023-01-09T06:24:32.381Z,7.71
2023-01-09T06:25:53.851Z,7.72
2023-01-09T06:26:32.935Z,7.74
2023-01-09T06:27:33.219Z,7.77
2023-01-09T06:28:32.946Z,7.75
2023-01-09T06:29:33.203Z,7.79
2023-01-09T06:30:32.945Z,7.79
2023-01-09T06:31:33.312Z,7.79
2023-01-09T06:32:32.954Z,7.79
2023-01-09T06:33:33.221Z,7.79
2023-01-09T06:34:32.957Z,7.80
2023-01-09T06:35:53.891Z,7.82
2023-01-09T06:36:33.009Z,7.83
2023-01-09T06:37:32.748Z,7.83
2023-01-09T06:38:32.988Z,7.82
2023-01-09T06:39:32.760Z,7.83
2023-01-09T06:40:33.000Z,7.83
2023-01-09T06:41:32.784Z,7.85
2023-01-09T06:42:33.031Z,7.85
2023-01-09T06:43:32.794Z,7.83
2023-01-09T06:44:33.101Z,7.86
2023-01-09T06:45:54.282Z,7.87
2023-01-09T06:46:33.089Z,7.87
2023-01-09T06:47:32.810Z,7.89
2023-01-09T06:48:33.046Z,7.89
2023-01-09T06:49:34.374Z,7.90
2023-01-09T06:50:34.203Z,7.93
2023-01-09T06:51:34.484Z,7.92
2023-01-09T06:52:33.502Z,7.92
2023-01-09T06:53:33.385Z,7.92
2023-01-09T06:54:34.437Z,7.90
2023-01-09T06:55:52.782Z,7.90
2023-01-09T06:56:34.499Z,7.90
2023-01-09T06:57:34.315Z,7.89
2023-01-09T06:58:34.099Z,7.87
2023-01-09T06:59:32.398Z,7.86
2023-01-09T07:00:33.478Z,7.86
2023-01-09T07:01:32.825Z,7.86
2023-01-09T07:02:33.485Z,7.86
2023-01-09T07:03:33.865Z,7.87
2023-01-09T07:04:33.475Z,7.89
2023-01-09T07:05:52.067Z,7.92
2023-01-09T07:06:33.438Z,7.90
2023-01-09T07:07:33.448Z,7.90
2023-01-09T07:08:34.275Z,7.92
2023-01-09T07:09:33.415Z,7.92
2023-01-09T07:10:32.627Z,7.93
2023-01-09T07:11:32.422Z,7.95
2023-01-09T07:12:33.367Z,7.95
2023-01-09T07:13:33.373Z,7.97
2023-01-09T07:14:33.352Z,7.95
2023-01-09T07:15:52.027Z,7.95
2023-01-09T07:16:33.324Z,7.98
2023-01-09T07:17:32.394Z,7.97
2023-01-09T07:18:33.302Z,7.97
2023-01-09T07:19:32.519Z,7.95
2023-01-09T07:20:33.346Z,7.97
2023-01-09T07:21:33.365Z,7.97
2023-01-09T07:22:32.410Z,8.00
2023-01-09T07:23:33.352Z,8.00
2023-01-09T07:24:32.775Z,8.02
2023-01-09T07:25:52.607Z,8.02
2023-01-09T07:26:33.792Z,8.04
2023-01-09T07:27:34.127Z,8.05
2023-01-09T07:28:32.937Z,8.05
2023-01-09T07:29:34.192Z,8.04
2023-01-09T07:30:33.977Z,8.04
2023-01-09T07:31:33.823Z,8.05
2023-01-09T07:32:34.085Z,8.07
2023-01-09T07:33:32.922Z,8.07
2023-01-09T07:34:33.677Z,8.05
2023-01-09T07:35:52.492Z,8.07
2023-01-09T07:36:33.782Z,8.07
2023-01-09T07:37:34.116Z,8.08
2023-01-09T07:38:34.096Z,8.08
2023-01-09T07:39:33.690Z,8.07
2023-01-09T07:40:34.089Z,8.05
2023-01-09T07:41:33.930Z,8.08
2023-01-09T07:42:33.761Z,8.08
2023-01-09T07:43:33.533Z,8.10
2023-01-09T07:44:33.742Z,8.10
2023-01-09T07:45:52.183Z,8.12
2023-01-09T07:46:34.016Z,8.11
2023-01-09T07:47:32.916Z,8.11
2023-01-09T07:48:33.999Z,8.11
2023-01-09T07:49:33.810Z,8.15
2023-01-09T07:50:32.946Z,8.15
2023-01-09T07:51:33.441Z,8.12
2023-01-09T07:52:33.755Z,8.15
2023-01-09T07:53:32.399Z,8.15
2023-01-09T07:54:34.048Z,8.18
2023-01-09T07:55:53.824Z,8.18
2023-01-09T07:56:33.638Z,8.18
2023-01-09T07:57:33.415Z,8.18
2023-01-09T07:58:33.715Z,8.16
2023-01-09T07:59:33.561Z,8.16
2023-01-09T08:00:33.449Z,8.15
2023-01-09T08:01:32.957Z,8.15
2023-01-09T08:02:33.614Z,8.15
2023-01-09T08:03:32.465Z,8.12
2023-01-09T08:04:33.649Z,8.10
2023-01-09T08:05:52.054Z,8.10
2023-01-09T08:06:32.956Z,8.08
2023-01-09T08:07:33.528Z,8.07
2023-01-09T08:08:32.182Z,8.08
2023-01-09T08:09:33.821Z,8.07
2023-01-09T08:10:33.134Z,8.07
2023-01-09T08:11:33.477Z,8.04
2023-01-09T08:12:32.942Z,8.02
2023-01-09T08:13:33.614Z,8.05
2023-01-09T08:14:32.603Z,8.02
2023-01-09T08:15:52.239Z,8.05
2023-01-09T08:16:33.444Z,8.02
2023-01-09T08:17:32.476Z,8.02
2023-01-09T08:18:32.439Z,8.01
2023-01-09T08:19:33.395Z,8.01
2023-01-09T08:20:33.270Z,8.01
2023-01-09T08:21:33.031Z,8.02
2023-01-09T08:22:33.388Z,8.01
2023-01-09T08:23:33.177Z,8.02
2023-01-09T08:24:32.561Z,8.02
2023-01-09T08:25:51.887Z,8.04
2023-01-09T08:26:33.135Z,8.05
2023-01-09T08:27:32.700Z,8.07
2023-01-09T08:28:33.290Z,8.08
2023-01-09T08:29:33.573Z,8.10
2023-01-09T08:30:32.456Z,8.10
2023-01-09T08:31:33.283Z,8.11
2023-01-09T08:32:33.535Z,8.12
2023-01-09T08:33:33.449Z,8.15
2023-01-09T08:34:33.240Z,8.18
2023-01-09T08:35:52.049Z,8.19
2023-01-09T08:36:33.238Z,8.18
2023-01-09T08:37:33.517Z,8.18
2023-01-09T08:38:33.373Z,8.20
2023-01-09T08:39:32.365Z,8.20
2023-01-09T08:40:33.027Z,8.20
2023-01-09T08:41:32.468Z,8.22
2023-01-09T08:42:33.154Z,8.22
2023-01-09T08:43:33.443Z,8.25
2023-01-09T08:44:33.273Z,8.25
2023-01-09T08:45:51.582Z,8.26
2023-01-09T08:46:34.836Z,8.26
2023-01-09T08:47:32.471Z,8.28
2023-01-09T08:48:32.997Z,8.29
2023-01-09T08:49:32.833Z,8.29
2023-01-09T08:50:32.655Z,8.29
2023-01-09T08:51:32.928Z,8.28
2023-01-09T08:52:33.199Z,8.29
2023-01-09T08:53:32.527Z,8.29
2023-01-09T08:54:32.546Z,8.29
2023-01-09T08:55:51.735Z,8.29
2023-01-09T08:56:32.969Z,8.28
2023-01-09T08:57:33.321Z,8.30
2023-01-09T08:58:33.099Z,8.30
2023-01-09T08:59:32.395Z,8.30
2023-01-09T09:00:33.205Z,8.33
2023-01-09T09:01:33.033Z,8.34
2023-01-09T09:02:32.936Z,8.38
2023-01-09T09:03:33.138Z,8.40
2023-01-09T09:04:33.037Z,8.41
2023-01-09T09:05:51.810Z,8.43
2023-01-09T09:06:31.639Z,8.44
2023-01-09T09:07:32.336Z,8.47
2023-01-09T09:08:33.139Z,8.48
2023-01-09T09:09:32.165Z,8.50
2023-01-09T09:10:32.780Z,8.48
2023-01-09T09:11:31.704Z,8.50
2023-01-09T09:12:33.035Z,8.50
2023-01-09T09:13:32.820Z,8.48
2023-01-09T09:14:33.160Z,8.47
2023-01-09T09:15:51.509Z,8.48
2023-01-09T09:16:31.995Z,8.45
2023-01-09T09:17:32.978Z,8.44
2023-01-09T09:18:32.826Z,8.45
2023-01-09T09:19:32.744Z,8.43
2023-01-09T09:20:32.995Z,8.41
2023-01-09T09:21:32.794Z,8.41
2023-01-09T09:22:32.003Z,8.38
2023-01-09T09:23:32.927Z,8.40
2023-01-09T09:24:32.686Z,8.38
2023-01-09T09:25:51.519Z,8.38
2023-01-09T09:26:32.742Z,8.38
2023-01-09T09:27:32.011Z,8.37
2023-01-09T09:28:31.576Z,8.38
2023-01-09T09:29:32.788Z,8.38
2023-01-09T09:30:32.600Z,8.40
2023-01-09T09:31:32.978Z,8.41
2023-01-09T09:32:32.216Z,8.43
2023-01-09T09:33:31.995Z,8.43
2023-01-09T09:34:32.027Z,8.41
2023-01-09T09:35:51.181Z,8.43
2023-01-09T09:36:33.014Z,8.43
2023-01-09T09:37:32.692Z,8.43
2023-01-09T09:38:31.991Z,8.43
2023-01-09T09:39:32.006Z,8.43
2023-01-09T09:40:32.584Z,8.41
2023-01-09T09:41:32.968Z,8.41
2023-01-09T09:42:32.321Z,8.40
2023-01-09T09:43:32.619Z,8.41
2023-01-09T09:44:32.473Z,8.40
2023-01-09T09:45:51.359Z,8.38
2023-01-09T09:46:31.198Z,8.40
2023-01-09T09:47:31.847Z,8.38
2023-01-09T09:48:32.652Z,8.38
2023-01-09T09:49:32.521Z,8.38
2023-01-09T09:50:32.393Z,8.38
2023-01-09T09:51:32.005Z,8.37
2023-01-09T09:52:32.494Z,8.37
2023-01-09T09:53:32.273Z,8.38
2023-01-09T09:54:32.605Z,8.37
2023-01-09T09:55:50.948Z,8.38
2023-01-09T09:56:31.508Z,8.40
2023-01-09T09:57:31.502Z,8.38
2023-01-09T09:58:31.094Z,8.38
2023-01-09T09:59:32.724Z,8.40
2023-01-09T10:00:32.567Z,8.41
2023-01-09T10:01:32.375Z,8.41
2023-01-09T10:02:32.692Z,8.41
2023-01-09T10:03:34.191Z,8.40
2023-01-09T10:04:31.760Z,8.41
2023-01-09T10:05:51.064Z,8.41
2023-01-09T10:06:32.285Z,8.43
2023-01-09T10:07:32.565Z,8.43
2023-01-09T10:08:32.355Z,8.44
2023-01-09T10:09:31.522Z,8.43
2023-01-09T10:10:32.459Z,8.41
2023-01-09T10:11:32.286Z,8.43
2023-01-09T10:12:32.589Z,8.45
2023-01-09T10:13:32.605Z,8.45
2023-01-09T10:14:32.376Z,8.45
2023-01-09T10:15:50.680Z,8.43
2023-01-09T10:16:31.060Z,8.43
2023-01-09T10:17:30.777Z,8.41
2023-01-09T10:18:32.501Z,8.41
2023-01-09T10:19:32.265Z,8.41
2023-01-09T10:20:32.126Z,8.41
2023-01-09T10:21:31.052Z,8.41
2023-01-09T10:22:32.264Z,8.43
2023-01-09T10:23:31.284Z,8.44
2023-01-09T10:24:31.876Z,8.45
2023-01-09T10:25:50.709Z,8.48
2023-01-09T10:26:32.412Z,8.48
2023-01-09T10:27:31.527Z,8.50
2023-01-09T10:28:31.514Z,8.53
2023-01-09T10:29:32.368Z,8.56
2023-01-09T10:30:32.267Z,8.55
2023-01-09T10:31:32.174Z,8.56
2023-01-09T10:32:31.901Z,8.53
2023-01-09T10:33:32.187Z,8.53
2023-01-09T10:34:31.502Z,8.52
2023-01-09T10:35:50.808Z,8.50
2023-01-09T10:36:31.598Z,8.48
2023-01-09T10:37:31.099Z,8.48
2023-01-09T10:38:30.828Z,8.48
2023-01-09T10:39:31.023Z,8.50
2023-01-09T10:40:31.824Z,8.48
2023-01-09T10:41:30.714Z,8.50
2023-01-09T10:42:31.923Z,8.48
2023-01-09T10:43:32.183Z,8.48
2023-01-09T10:44:30.544Z,8.47
2023-01-09T10:45:50.808Z,8.48
2023-01-09T10:46:32.049Z,8.48
2023-01-09T10:47:31.877Z,8.48
2023-01-09T10:48:32.186Z,8.48
2023-01-09T10:49:31.173Z,8.52
2023-01-09T10:50:31.760Z,8.53
2023-01-09T10:51:31.036Z,8.59
2023-01-09T10:52:32.006Z,8.59
2023-01-09T10:53:31.786Z,8.59
2023-01-09T10:54:32.103Z,8.59
2023-01-09T10:55:50.427Z,8.59
2023-01-09T10:56:31.049Z,8.58
2023-01-09T10:57:31.176Z,8.59
2023-01-09T10:58:31.769Z,8.58
2023-01-09T10:59:32.053Z,8.56
2023-01-09T11:00:31.955Z,8.56
2023-01-09T11:01:31.731Z,8.56
2023-01-09T11:02:31.069Z,8.55
2023-01-09T11:03:31.484Z,8.56
2023-01-09T11:04:31.751Z,8.56
2023-01-09T11:05:50.556Z,8.58
2023-01-09T11:06:31.833Z,8.61
2023-01-09T11:07:31.047Z,8.61
2023-01-09T11:08:32.024Z,8.62
2023-01-09T11:09:31.802Z,8.61
2023-01-09T11:10:31.661Z,8.61
2023-01-09T11:11:31.127Z,8.61
2023-01-09T11:12:31.731Z,8.61
2023-01-09T11:13:31.510Z,8.58
2023-01-09T11:14:31.834Z,8.58
2023-01-09T11:15:50.197Z,8.58
2023-01-09T11:16:32.029Z,8.56
2023-01-09T11:17:31.739Z,8.55
2023-01-09T11:18:31.551Z,8.56
2023-01-09T11:19:31.064Z,8.58
2023-01-09T11:20:31.721Z,8.58
2023-01-09T11:21:31.562Z,8.56
2023-01-09T11:22:31.380Z,8.56
2023-01-09T11:23:31.713Z,8.56
2023-01-09T11:24:30.569Z,8.58
2023-01-09T11:25:50.351Z,8.56
2023-01-09T11:26:31.559Z,8.55
2023-01-09T11:27:31.347Z,8.56
2023-01-09T11:28:31.658Z,8.58
2023-01-09T11:29:31.454Z,8.58
2023-01-09T11:30:31.752Z,8.63
2023-01-09T11:31:30.235Z,8.68
2023-01-09T11:32:31.433Z,8.83
2023-01-09T11:33:31.710Z,8.86
2023-01-09T11:34:31.523Z,8.87
2023-01-09T11:35:49.832Z,8.86
2023-01-09T11:36:31.619Z,8.84
2023-01-09T11:37:30.594Z,8.83
2023-01-09T11:38:31.230Z,8.79
2023-01-09T11:39:31.054Z,8.74
2023-01-09T11:40:30.564Z,8.70
2023-01-09T11:41:31.154Z,8.70
2023-01-09T11:42:31.452Z,8.68
2023-01-09T11:43:31.251Z,8.65
2023-01-09T11:44:31.525Z,8.65
2023-01-09T11:46:00.241Z,8.63
2023-01-09T11:46:32.617Z,8.63
2023-01-09T11:47:31.593Z,8.63
2023-01-09T11:48:30.574Z,8.70
2023-01-09T11:49:31.186Z,8.76
2023-01-09T11:50:31.561Z,8.83
2023-01-09T11:51:31.389Z,9.08
2023-01-09T11:52:30.651Z,9.33
2023-01-09T11:53:30.661Z,9.36
2023-01-09T11:54:31.261Z,9.89
2023-01-09T11:55:49.594Z,10.33
2023-01-09T11:56:29.946Z,10.36
2023-01-09T11:57:31.116Z,10.48
2023-01-09T11:58:31.398Z,10.40
2023-01-09T11:59:31.207Z,10.17
2023-01-09T12:00:29.589Z,9.97
2023-01-09T12:01:31.299Z,9.84
2023-01-09T12:02:29.943Z,9.74
2023-01-09T12:03:30.995Z,9.66
2023-01-09T12:04:30.506Z,9.64
2023-01-09T12:05:49.600Z,9.97
2023-01-09T12:06:31.379Z,10.01
2023-01-09T12:07:30.780Z,9.99
2023-01-09T12:08:31.018Z,9.97
2023-01-09T12:09:31.374Z,9.93
2023-01-09T12:10:31.160Z,9.87
2023-01-09T12:11:30.092Z,9.81
2023-01-09T12:12:31.304Z,9.75
2023-01-09T12:13:30.332Z,9.66
2023-01-09T12:14:30.923Z,9.58
2023-01-09T12:15:49.766Z,9.47
2023-01-09T12:16:30.980Z,9.43
2023-01-09T12:17:30.107Z,9.36
2023-01-09T12:18:30.634Z,9.31
2023-01-09T12:19:30.927Z,9.28
2023-01-09T12:20:31.246Z,9.26
2023-01-09T12:21:31.068Z,9.28
2023-01-09T12:22:30.103Z,9.36
2023-01-09T12:23:31.226Z,9.48
2023-01-09T12:24:30.569Z,9.57
2023-01-09T12:25:49.335Z,9.56
2023-01-09T12:26:30.542Z,9.56
2023-01-09T12:27:30.826Z,9.58
2023-01-09T12:28:30.104Z,9.61
2023-01-09T12:29:30.962Z,9.68
2023-01-09T12:30:29.983Z,9.76
2023-01-09T12:31:31.061Z,10.12
2023-01-09T12:32:30.863Z,10.30
2023-01-09T12:33:30.789Z,10.38
2023-01-09T12:34:29.632Z,10.47
2023-01-09T12:35:49.357Z,10.48
2023-01-09T12:36:31.142Z,10.44
2023-01-09T12:37:30.968Z,10.34
2023-01-09T12:38:30.249Z,10.29
2023-01-09T12:39:30.594Z,10.22
2023-01-09T12:40:30.879Z,10.18
2023-01-09T12:41:30.784Z,10.11
2023-01-09T12:42:29.163Z,10.04
2023-01-09T12:43:29.447Z,9.97
2023-01-09T12:44:35.604Z,9.87
2023-01-09T12:45:50.521Z,9.84
2023-01-09T12:46:30.692Z,9.86
2023-01-09T12:47:29.973Z,9.86
2023-01-09T12:48:30.762Z,9.86
2023-01-09T12:49:29.123Z,9.78
2023-01-09T12:50:29.379Z,9.75
2023-01-09T12:51:29.110Z,9.81
2023-01-09T12:52:29.358Z,9.87
2023-01-09T12:53:29.114Z,9.91
2023-01-09T12:54:29.368Z,9.91
2023-01-09T12:55:49.166Z,9.89
2023-01-09T12:56:28.896Z,9.84
2023-01-09T12:57:29.381Z,9.84
2023-01-09T12:58:28.892Z,9.84
2023-01-09T12:59:29.148Z,9.89
2023-01-09T13:00:29.379Z,9.91
2023-01-09T13:01:29.177Z,9.93
2023-01-09T13:02:29.124Z,9.87
2023-01-09T13:03:29.160Z,9.89
2023-01-09T13:04:28.951Z,9.83
2023-01-09T13:05:49.213Z,9.76
2023-01-09T13:06:28.936Z,9.76
2023-01-09T13:07:29.194Z,9.79
2023-01-09T13:08:28.920Z,9.83
2023-01-09T13:09:29.182Z,9.90
2023-01-09T13:10:28.918Z,9.94
2023-01-09T13:11:29.229Z,9.97
2023-01-09T13:12:29.402Z,9.97
2023-01-09T13:13:29.202Z,9.99
2023-01-09T13:14:28.939Z,9.99
2023-01-09T13:15:49.204Z,10.02
2023-01-09T13:16:28.990Z,10.04
2023-01-09T13:17:28.705Z,9.99